Time;durP1;ratioP1;P1;durP2;ratioP2;P2;SDS_P1;SDS_P2;PMS_P1;PMS_P2;Temp;Humidity;BMP_temperature;BMP_pressure;BME280_temperature;BME280_humidity;BME280_pressure;Samples;Min_cycle;Max_cycle;Signal;HPM_P1;HPM_P2
2023/11/11 00:01:08;;;;;;;24.40;8.68;;;;;;;;;;5076396;28;20021;-69
2023/11/11 00:03:34;;;;;;;20.02;8.15;;;;;;;;;;5077070;28;20020;-69
2023/11/11 00:06:00;;;;;;;25.17;8.55;;;;;;;;;;5076645;28;20515;-69
2023/11/11 00:08:25;;;;;;;26.77;9.75;;;;;;;;;;5077026;28;20056;-69
2023/11/11 00:10:50;;;;;;;30.08;10.38;;;;;;;;;;5076182;28;20016;-69
2023/11/11 00:13:15;;;;;;;22.98;8.23;;;;;;;;;;5076493;28;20021;-69
2023/11/11 00:15:41;;;;;;;23.80;8.70;;;;;;;;;;5076454;28;20477;-69
2023/11/11 00:18:07;;;;;;;22.83;7.72;;;;;;;;;;5076499;28;20089;-69
2023/11/11 00:20:34;;;;;;;23.77;8.50;;;;;;;;;;5076475;28;20021;-69
2023/11/11 00:23:05;;;;;;;23.80;9.13;;;;;;;;;;5076064;28;20074;-69
2023/11/11 00:25:31;;;;;;;20.63;7.60;;;;;;;;;;5059522;28;20028;-69
2023/11/11 00:27:56;;;;;;;21.63;7.72;;;;;;;;;;5076530;28;20035;-69
2023/11/11 00:30:22;;;;;;;22.95;8.45;;;;;;;;;;5075889;28;20028;-69
2023/11/11 00:32:50;;;;;;;19.00;7.38;;;;;;;;;;5076391;28;20056;-69
2023/11/11 00:35:16;;;;;;;20.20;7.63;;;;;;;;;;5076125;28;20031;-69
2023/11/11 00:37:45;;;;;;;17.80;7.18;;;;;;;;;;5058731;28;20051;-69
2023/11/11 00:40:11;;;;;;;20.60;7.30;;;;;;;;;;5075610;28;20073;-69
2023/11/11 00:42:36;;;;;;;15.35;7.10;;;;;;;;;;5058224;28;20028;-69
2023/11/11 00:45:02;;;;;;;17.20;6.97;;;;;;;;;;5075928;28;20027;-68
2023/11/11 00:47:27;;;;;;;17.27;7.63;;;;;;;;;;5076169;28;20031;-69
2023/11/11 00:49:52;;;;;;;21.70;8.02;;;;;;;;;;5075786;28;20024;-69
2023/11/11 00:52:18;;;;;;;16.45;6.72;;;;;;;;;;5076171;28;20024;-69
2023/11/11 00:54:43;;;;;;;16.33;6.65;;;;;;;;;;5057368;28;20028;-69
2023/11/11 00:57:09;;;;;;;18.13;7.03;;;;;;;;;;5075789;28;20029;-69
2023/11/11 00:59:34;;;;;;;15.65;6.82;;;;;;;;;;5058184;28;20497;-69
2023/11/11 01:02:00;;;;;;;22.98;8.15;;;;;;;;;;5075569;28;20056;-69
2023/11/11 01:04:25;;;;;;;20.17;7.10;;;;;;;;;;5052054;28;20025;-69
2023/11/11 01:06:51;;;;;;;14.25;6.40;;;;;;;;;;5059406;28;20028;-69
2023/11/11 01:09:17;;;;;;;17.33;6.20;;;;;;;;;;5065961;28;20032;-69
2023/11/11 01:11:42;;;;;;;19.08;8.10;;;;;;;;;;5074507;28;20021;-69
2023/11/11 01:14:07;;;;;;;18.85;8.10;;;;;;;;;;5044019;28;20397;-69
2023/11/11 01:16:33;;;;;;;19.08;8.02;;;;;;;;;;5055445;28;20033;-69
2023/11/11 01:18:58;;;;;;;17.38;7.80;;;;;;;;;;5055318;28;20478;-69
2023/11/11 01:21:24;;;;;;;16.65;6.88;;;;;;;;;;5037286;28;20446;-69
2023/11/11 01:23:49;;;;;;;18.40;7.80;;;;;;;;;;5055207;28;20061;-69
2023/11/11 01:26:15;;;;;;;19.40;6.57;;;;;;;;;;5055171;28;20075;-69
2023/11/11 01:28:40;;;;;;;18.75;7.00;;;;;;;;;;5055145;28;20020;-69
2023/11/11 01:31:06;;;;;;;18.25;7.85;;;;;;;;;;5054459;28;20040;-69
2023/11/11 01:33:31;;;;;;;14.43;6.65;;;;;;;;;;5061177;28;20021;-69
2023/11/11 01:36:00;;;;;;;15.85;6.72;;;;;;;;;;5055042;28;20024;-69
2023/11/11 01:38:26;;;;;;;14.27;5.30;;;;;;;;;;5037837;28;20036;-69
2023/11/11 01:40:52;;;;;;;18.15;7.03;;;;;;;;;;5055250;28;20016;-69
2023/11/11 01:43:17;;;;;;;16.45;6.32;;;;;;;;;;5055075;28;20037;-70
2023/11/11 01:45:43;;;;;;;18.52;6.60;;;;;;;;;;5054526;28;20493;-69
2023/11/11 01:48:13;;;;;;;16.58;6.40;;;;;;;;;;5037220;28;20024;-68
2023/11/11 01:50:41;;;;;;;14.98;6.88;;;;;;;;;;5068097;28;20363;-69
2023/11/11 01:53:06;;;;;;;13.77;5.32;;;;;;;;;;5074647;28;20032;-69
2023/11/11 01:55:32;;;;;;;16.00;5.93;;;;;;;;;;5056301;28;20098;-69
2023/11/11 01:57:58;;;;;;;19.65;7.32;;;;;;;;;;5063096;28;20443;-69
2023/11/11 02:00:25;;;;;;;14.98;5.88;;;;;;;;;;5058919;28;20045;-69
2023/11/11 02:02:51;;;;;;;16.65;6.15;;;;;;;;;;5072297;28;20539;-69
2023/11/11 02:05:16;;;;;;;15.40;6.85;;;;;;;;;;5074270;28;20020;-69
2023/11/11 02:07:41;;;;;;;13.45;5.22;;;;;;;;;;5073884;28;20103;-68
2023/11/11 02:10:09;;;;;;;14.40;6.53;;;;;;;;;;5074053;28;20027;-69
2023/11/11 02:12:35;;;;;;;15.18;6.68;;;;;;;;;;5074280;28;20592;-69
2023/11/11 02:15:01;;;;;;;18.85;7.32;;;;;;;;;;5055656;28;20032;-69
2023/11/11 02:17:27;;;;;;;14.93;6.15;;;;;;;;;;5074212;28;20105;-69
2023/11/11 02:19:53;;;;;;;22.23;7.75;;;;;;;;;;5073239;28;20126;-69
2023/11/11 02:22:18;;;;;;;16.38;7.05;;;;;;;;;;5056781;28;20052;-69
2023/11/11 02:24:44;;;;;;;19.20;7.80;;;;;;;;;;5073998;28;20028;-69
2023/11/11 02:27:11;;;;;;;17.75;8.05;;;;;;;;;;5074237;28;20085;-69
2023/11/11 02:29:44;;;;;;;21.95;9.00;;;;;;;;;;5073570;28;20028;-69
2023/11/11 02:32:09;;;;;;;24.40;9.20;;;;;;;;;;5073892;28;20477;-69
2023/11/11 02:34:34;;;;;;;27.60;10.23;;;;;;;;;;5074085;28;20028;-69
2023/11/11 02:36:59;;;;;;;33.83;12.57;;;;;;;;;;5073448;28;20546;-69
2023/11/11 02:39:25;;;;;;;25.65;10.18;;;;;;;;;;5074052;28;20024;-69
2023/11/11 02:41:50;;;;;;;37.58;10.77;;;;;;;;;;5074377;28;20111;-69
2023/11/11 02:44:16;;;;;;;33.92;12.57;;;;;;;;;;5074269;28;20046;-69
2023/11/11 02:46:42;;;;;;;37.25;12.32;;;;;;;;;;5073407;28;20024;-69
2023/11/11 02:49:08;;;;;;;37.30;11.52;;;;;;;;;;5073626;28;20028;-68
2023/11/11 02:51:34;;;;;;;31.00;12.23;;;;;;;;;;5073952;28;20037;-68
2023/11/11 02:53:59;;;;;;;30.10;11.18;;;;;;;;;;5073333;28;20021;-68
2023/11/11 02:56:25;;;;;;;33.20;11.15;;;;;;;;;;5073690;28;20020;-69
2023/11/11 02:58:50;;;;;;;33.40;12.65;;;;;;;;;;5073743;28;20027;-69
2023/11/11 03:01:15;;;;;;;31.27;12.25;;;;;;;;;;5073565;28;20497;-69
2023/11/11 03:03:41;;;;;;;36.38;12.52;;;;;;;;;;5073735;28;20031;-69
2023/11/11 03:06:06;;;;;;;36.38;11.25;;;;;;;;;;5073160;28;20051;-69
2023/11/11 03:08:36;;;;;;;37.05;12.85;;;;;;;;;;5073738;28;20020;-69
2023/11/11 03:11:03;;;;;;;40.28;12.00;;;;;;;;;;5073472;28;20034;-69
2023/11/11 03:13:28;;;;;;;34.90;11.65;;;;;;;;;;5073182;28;20027;-69
2023/11/11 03:15:54;;;;;;;33.65;11.27;;;;;;;;;;5073354;28;20450;-69
2023/11/11 03:18:19;;;;;;;35.10;12.68;;;;;;;;;;5055656;28;20413;-69
2023/11/11 03:20:44;;;;;;;32.50;11.43;;;;;;;;;;5073467;28;20043;-69
2023/11/11 03:23:09;;;;;;;33.75;10.98;;;;;;;;;;5073571;28;20033;-69
2023/11/11 03:25:35;;;;;;;32.67;10.70;;;;;;;;;;5072831;28;20016;-69
2023/11/11 03:28:00;;;;;;;33.35;10.85;;;;;;;;;;5073364;28;20016;-69
2023/11/11 03:30:25;;;;;;;40.05;12.52;;;;;;;;;;5075208;28;20074;-69
2023/11/11 03:32:51;;;;;;;31.55;10.43;;;;;;;;;;5076797;28;20028;-69
2023/11/11 03:35:17;;;;;;;29.65;10.20;;;;;;;;;;5067408;28;20043;-69
2023/11/11 03:37:42;;;;;;;28.27;10.68;;;;;;;;;;5065772;28;20100;-69
2023/11/11 03:40:10;;;;;;;34.72;11.50;;;;;;;;;;5075114;28;20101;-69
2023/11/11 03:42:36;;;;;;;33.03;11.40;;;;;;;;;;5056708;28;20029;-69
2023/11/11 03:45:01;;;;;;;32.63;12.07;;;;;;;;;;5056257;28;20074;-69
2023/11/11 03:47:26;;;;;;;27.90;10.35;;;;;;;;;;5056936;28;20025;-69
2023/11/11 03:49:51;;;;;;;41.78;13.73;;;;;;;;;;5056984;28;20036;-69
2023/11/11 03:52:17;;;;;;;27.48;11.00;;;;;;;;;;5057222;28;20029;-69
2023/11/11 03:54:43;;;;;;;36.15;11.60;;;;;;;;;;5056805;28;20021;-68
2023/11/11 03:57:08;;;;;;;37.83;11.85;;;;;;;;;;5056893;28;20032;-69
2023/11/11 03:59:36;;;;;;;31.65;10.55;;;;;;;;;;5057151;28;20025;-69
2023/11/11 04:02:01;;;;;;;36.70;11.55;;;;;;;;;;5039516;28;20028;-69
2023/11/11 04:04:26;;;;;;;34.50;10.50;;;;;;;;;;5057501;28;20021;-69
2023/11/11 04:06:52;;;;;;;29.88;11.55;;;;;;;;;;5075908;28;20393;-69
2023/11/11 04:09:17;;;;;;;29.63;11.98;;;;;;;;;;5076222;28;20025;-69
2023/11/11 04:11:42;;;;;;;38.30;11.95;;;;;;;;;;5076789;28;20381;-69
2023/11/11 04:14:08;;;;;;;35.22;11.80;;;;;;;;;;5076470;28;20024;-69
2023/11/11 04:16:33;;;;;;;37.75;12.68;;;;;;;;;;5076587;28;20048;-68
2023/11/11 04:19:00;;;;;;;35.58;12.50;;;;;;;;;;5075889;28;20028;-68
2023/11/11 04:21:25;;;;;;;34.10;12.48;;;;;;;;;;5076444;28;20074;-68
2023/11/11 04:23:51;;;;;;;38.47;13.05;;;;;;;;;;5076426;28;20028;-68
2023/11/11 04:26:16;;;;;;;37.33;12.77;;;;;;;;;;5076004;28;20111;-69
2023/11/11 04:28:43;;;;;;;36.72;13.18;;;;;;;;;;5075805;28;20694;-69
2023/11/11 04:31:11;;;;;;;41.75;12.82;;;;;;;;;;5076543;28;20030;-69
2023/11/11 04:33:36;;;;;;;40.53;14.18;;;;;;;;;;5076136;28;20033;-69
2023/11/11 04:36:02;;;;;;;43.42;14.02;;;;;;;;;;5076155;28;20083;-69
2023/11/11 04:38:27;;;;;;;37.03;12.93;;;;;;;;;;5076004;28;20072;-69
2023/11/11 04:40:53;;;;;;;40.15;12.98;;;;;;;;;;5075576;28;20089;-69
2023/11/11 04:43:18;;;;;;;40.17;14.50;;;;;;;;;;5075695;28;20020;-69
2023/11/11 04:45:44;;;;;;;35.63;14.07;;;;;;;;;;5075810;28;20028;-69
2023/11/11 04:48:09;;;;;;;42.88;13.27;;;;;;;;;;5057818;28;20031;-69
2023/11/11 04:50:35;;;;;;;41.47;13.18;;;;;;;;;;5075396;28;20027;-69
2023/11/11 04:53:00;;;;;;;39.85;14.32;;;;;;;;;;5075767;28;20088;-69
2023/11/11 04:55:26;;;;;;;37.05;13.25;;;;;;;;;;5075677;28;20039;-69
2023/11/11 04:57:51;;;;;;;45.42;13.15;;;;;;;;;;5075489;28;20150;-69
2023/11/11 05:00:17;;;;;;;38.72;12.95;;;;;;;;;;5075262;28;20021;-69
2023/11/11 05:02:43;;;;;;;39.17;13.32;;;;;;;;;;5067138;28;20017;-69
2023/11/11 05:05:12;;;;;;;38.88;13.15;;;;;;;;;;5063366;28;20024;-69
2023/11/11 05:07:39;;;;;;;34.97;12.43;;;;;;;;;;5075420;28;20031;-68
2023/11/11 05:10:06;;;;;;;37.50;13.27;;;;;;;;;;5057618;28;20032;-68
2023/11/11 05:12:35;;;;;;;45.05;13.35;;;;;;;;;;5075220;28;20029;-69
2023/11/11 05:15:01;;;;;;;40.25;14.45;;;;;;;;;;5075014;28;20032;-69
2023/11/11 05:17:27;;;;;;;40.78;13.50;;;;;;;;;;5075981;28;20028;-69
2023/11/11 05:19:55;;;;;;;43.88;14.05;;;;;;;;;;5074995;28;20498;-69
2023/11/11 05:22:20;;;;;;;37.30;13.52;;;;;;;;;;5074308;28;20100;-69
2023/11/11 05:24:45;;;;;;;40.67;14.77;;;;;;;;;;5075057;28;20048;-69
2023/11/11 05:27:10;;;;;;;49.72;15.68;;;;;;;;;;5074970;28;20063;-69
2023/11/11 05:29:39;;;;;;;38.22;13.00;;;;;;;;;;5074724;28;20091;-69
2023/11/11 05:32:04;;;;;;;45.00;13.30;;;;;;;;;;5075021;28;20021;-69
2023/11/11 05:34:30;;;;;;;36.30;12.43;;;;;;;;;;5074350;28;20170;-69
2023/11/11 05:36:55;;;;;;;38.78;12.13;;;;;;;;;;5075011;28;20097;-68
2023/11/11 05:39:20;;;;;;;37.80;13.13;;;;;;;;;;5075231;28;20016;-69
2023/11/11 05:41:46;;;;;;;41.97;13.02;;;;;;;;;;5074850;28;20031;-68
2023/11/11 05:44:11;;;;;;;49.20;12.98;;;;;;;;;;5075428;28;20032;-68
2023/11/11 05:46:37;;;;;;;43.08;13.50;;;;;;;;;;5074642;28;20020;-69
2023/11/11 05:49:03;;;;;;;46.63;16.00;;;;;;;;;;5074589;28;20024;-68
2023/11/11 05:51:30;;;;;;;40.83;13.95;;;;;;;;;;5074976;28;20024;-69
2023/11/11 05:53:56;;;;;;;44.35;15.23;;;;;;;;;;5056873;28;20375;-68
2023/11/11 05:56:21;;;;;;;40.63;14.45;;;;;;;;;;5056335;28;20070;-68
2023/11/11 05:58:48;;;;;;;44.97;14.35;;;;;;;;;;5074469;28;20482;-69
2023/11/11 06:01:14;;;;;;;40.63;12.77;;;;;;;;;;5074556;28;20016;-69
2023/11/11 06:03:39;;;;;;;39.47;12.32;;;;;;;;;;5074503;28;20507;-69
2023/11/11 06:06:05;;;;;;;44.55;15.07;;;;;;;;;;5074187;28;20025;-69
2023/11/11 06:08:31;;;;;;;48.17;14.57;;;;;;;;;;5073901;28;20036;-69
2023/11/11 06:10:56;;;;;;;49.22;15.32;;;;;;;;;;5074156;28;20080;-69
2023/11/11 06:13:21;;;;;;;52.10;14.77;;;;;;;;;;5074297;28;20078;-69
2023/11/11 06:15:46;;;;;;;48.25;14.88;;;;;;;;;;5074054;28;20401;-69
2023/11/11 06:18:12;;;;;;;45.80;14.38;;;;;;;;;;5074136;28;20071;-68
2023/11/11 06:20:38;;;;;;;48.45;14.20;;;;;;;;;;5074339;28;20052;-68
2023/11/11 06:23:03;;;;;;;45.03;13.70;;;;;;;;;;5074033;28;20103;-68
2023/11/11 06:25:31;;;;;;;41.25;13.95;;;;;;;;;;5073714;28;20397;-69
2023/11/11 06:27:58;;;;;;;43.97;13.98;;;;;;;;;;5074006;28;20029;-68
2023/11/11 06:30:24;;;;;;;51.63;15.88;;;;;;;;;;5074226;28;20024;-69
2023/11/11 06:32:52;;;;;;;44.33;13.30;;;;;;;;;;5074334;28;20041;-69
2023/11/11 06:35:18;;;;;;;50.25;15.32;;;;;;;;;;5073951;28;20027;-69
2023/11/11 06:37:44;;;;;;;50.42;15.32;;;;;;;;;;5056174;28;20056;-68
2023/11/11 06:40:10;;;;;;;49.08;14.18;;;;;;;;;;5073771;28;20055;-69
2023/11/11 06:42:35;;;;;;;45.55;14.15;;;;;;;;;;5073644;28;20099;-68
2023/11/11 06:45:01;;;;;;;49.97;14.52;;;;;;;;;;5073695;28;20025;-68
2023/11/11 06:47:26;;;;;;;42.47;14.75;;;;;;;;;;5073432;28;20500;-69
2023/11/11 06:49:52;;;;;;;48.60;15.35;;;;;;;;;;5073339;28;20539;-69
2023/11/11 06:52:18;;;;;;;48.03;15.70;;;;;;;;;;5073037;28;20099;-69
2023/11/11 06:54:43;;;;;;;48.42;15.10;;;;;;;;;;5073204;28;20044;-69
2023/11/11 06:57:09;;;;;;;47.13;14.98;;;;;;;;;;5073417;28;20025;-69
2023/11/11 06:59:35;;;;;;;48.92;14.20;;;;;;;;;;5073297;28;20024;-69
2023/11/11 07:02:00;;;;;;;50.67;15.23;;;;;;;;;;5072964;28;20131;-69
2023/11/11 07:04:26;;;;;;;45.33;14.35;;;;;;;;;;5072497;28;20162;-69
2023/11/11 07:06:51;;;;;;;49.08;14.98;;;;;;;;;;5055178;28;20028;-69
2023/11/11 07:09:20;;;;;;;44.72;15.32;;;;;;;;;;5072548;28;20096;-69
2023/11/11 07:11:46;;;;;;;47.80;15.15;;;;;;;;;;5073300;28;20024;-69
2023/11/11 07:14:12;;;;;;;45.47;15.35;;;;;;;;;;5072789;28;20035;-69
2023/11/11 07:16:37;;;;;;;41.83;14.07;;;;;;;;;;5073359;28;20032;-69
2023/11/11 07:19:03;;;;;;;52.58;15.75;;;;;;;;;;5073079;28;20420;-69
2023/11/11 07:21:28;;;;;;;46.33;14.52;;;;;;;;;;5055338;28;20126;-69
2023/11/11 07:23:54;;;;;;;49.63;13.75;;;;;;;;;;5072225;28;20062;-69
2023/11/11 07:26:19;;;;;;;41.05;13.68;;;;;;;;;;5072997;28;20398;-69
2023/11/11 07:28:45;;;;;;;50.67;16.35;;;;;;;;;;5072662;28;20481;-69
2023/11/11 07:31:12;;;;;;;39.25;14.18;;;;;;;;;;5073142;28;20455;-69
2023/11/11 07:33:38;;;;;;;40.30;12.88;;;;;;;;;;5073051;28;20104;-69
2023/11/11 07:36:04;;;;;;;43.13;13.63;;;;;;;;;;5072902;28;20095;-69
2023/11/11 07:38:29;;;;;;;42.05;13.07;;;;;;;;;;5072772;28;20485;-69
2023/11/11 07:40:54;;;;;;;43.35;13.18;;;;;;;;;;5072633;28;20063;-69
2023/11/11 07:43:20;;;;;;;40.53;12.60;;;;;;;;;;5072895;28;20047;-69
2023/11/11 07:45:48;;;;;;;41.55;13.82;;;;;;;;;;5072151;28;20067;-69
2023/11/11 07:48:13;;;;;;;33.15;12.52;;;;;;;;;;5072712;28;20020;-69
2023/11/11 07:50:38;;;;;;;38.05;12.85;;;;;;;;;;5072723;28;20470;-69
2023/11/11 07:53:04;;;;;;;37.60;12.57;;;;;;;;;;5072842;28;20025;-69
2023/11/11 07:55:30;;;;;;;37.75;13.65;;;;;;;;;;5072723;28;20033;-69
2023/11/11 07:57:55;;;;;;;42.35;12.40;;;;;;;;;;5072933;28;20017;-69
2023/11/11 08:00:20;;;;;;;44.85;14.23;;;;;;;;;;5072184;28;20031;-69
2023/11/11 08:02:47;;;;;;;38.83;12.15;;;;;;;;;;5072664;28;20024;-69
2023/11/11 08:05:13;;;;;;;48.00;15.63;;;;;;;;;;5072601;28;20024;-69
2023/11/11 08:07:38;;;;;;;46.63;13.20;;;;;;;;;;5072696;28;20112;-69
2023/11/11 08:10:06;;;;;;;44.92;14.82;;;;;;;;;;5072298;28;20082;-69
2023/11/11 08:12:31;;;;;;;44.50;13.75;;;;;;;;;;5054329;28;20024;-70
2023/11/11 08:15:00;;;;;;;40.50;13.68;;;;;;;;;;5072148;28;20037;-69
2023/11/11 08:17:25;;;;;;;39.75;13.25;;;;;;;;;;5074020;28;20035;-69
2023/11/11 08:19:51;;;;;;;41.45;14.15;;;;;;;;;;5075916;28;20095;-69
2023/11/11 08:22:16;;;;;;;39.05;13.93;;;;;;;;;;5075702;28;20487;-69
2023/11/11 08:24:41;;;;;;;43.20;12.88;;;;;;;;;;5076383;28;20029;-69
2023/11/11 08:27:07;;;;;;;46.55;14.00;;;;;;;;;;5075785;28;20025;-69
2023/11/11 08:29:33;;;;;;;40.03;13.95;;;;;;;;;;5075989;28;20031;-69
2023/11/11 08:31:58;;;;;;;39.53;12.98;;;;;;;;;;5075523;28;20056;-69
2023/11/11 08:34:29;;;;;;;51.28;15.68;;;;;;;;;;5075083;28;20357;-70
2023/11/11 08:36:56;;;;;;;46.25;16.63;;;;;;;;;;5060742;28;20504;-69
2023/11/11 08:39:22;;;;;;;41.85;14.15;;;;;;;;;;5068862;28;20052;-69
2023/11/11 08:41:47;;;;;;;46.78;13.88;;;;;;;;;;5075456;28;20027;-69
2023/11/11 08:44:12;;;;;;;48.70;14.50;;;;;;;;;;5058922;28;20016;-69
2023/11/11 08:46:39;;;;;;;40.75;15.10;;;;;;;;;;5075215;28;20075;-69
2023/11/11 08:49:05;;;;;;;46.30;15.20;;;;;;;;;;5068313;28;20501;-69
2023/11/11 08:51:30;;;;;;;44.30;13.20;;;;;;;;;;5053415;28;20070;-69
2023/11/11 08:53:55;;;;;;;46.55;15.45;;;;;;;;;;5055552;28;20056;-69
2023/11/11 08:56:21;;;;;;;48.47;15.18;;;;;;;;;;5055187;28;20079;-69
2023/11/11 08:58:46;;;;;;;43.50;13.40;;;;;;;;;;5039513;28;20055;-69
2023/11/11 09:01:11;;;;;;;39.75;13.45;;;;;;;;;;5064857;28;20087;-69
2023/11/11 09:03:36;;;;;;;41.88;13.73;;;;;;;;;;5074462;28;20027;-69
2023/11/11 09:06:02;;;;;;;36.90;13.00;;;;;;;;;;5074911;28;20032;-69
2023/11/11 09:08:27;;;;;;;44.17;14.38;;;;;;;;;;5074898;28;20020;-69
2023/11/11 09:10:53;;;;;;;43.95;13.48;;;;;;;;;;5060954;28;20032;-69
2023/11/11 09:13:22;;;;;;;39.28;13.70;;;;;;;;;;5055020;28;20075;-69
2023/11/11 09:15:47;;;;;;;39.20;12.55;;;;;;;;;;5054594;28;20490;-68
2023/11/11 09:18:13;;;;;;;40.72;13.63;;;;;;;;;;5054254;28;20040;-69
2023/11/11 09:20:39;;;;;;;38.67;12.35;;;;;;;;;;5044355;28;20175;-69
2023/11/11 09:23:04;;;;;;;46.22;16.05;;;;;;;;;;5031191;28;66740;-69
2023/11/11 09:25:30;;;;;;;50.40;17.15;;;;;;;;;;5046792;28;64879;-69
2023/11/11 09:27:57;;;;;;;50.47;14.98;;;;;;;;;;5050784;28;20037;-69
2023/11/11 09:30:22;;;;;;;39.75;12.68;;;;;;;;;;5047713;28;20173;-69
2023/11/11 09:32:48;;;;;;;38.97;13.48;;;;;;;;;;5051736;28;20060;-68
2023/11/11 09:35:15;;;;;;;47.10;13.93;;;;;;;;;;5052436;28;20501;-69
2023/11/11 09:37:41;;;;;;;47.65;14.85;;;;;;;;;;5054219;28;20027;-69
2023/11/11 09:40:11;;;;;;;40.88;14.27;;;;;;;;;;5054281;28;20016;-69
2023/11/11 09:42:37;;;;;;;39.45;14.68;;;;;;;;;;5053923;28;20041;-69
2023/11/11 09:45:03;;;;;;;45.97;15.15;;;;;;;;;;5053301;28;20052;-69
2023/11/11 09:47:34;;;;;;;44.10;13.10;;;;;;;;;;5053418;28;20387;-69
2023/11/11 09:50:02;;;;;;;42.35;14.23;;;;;;;;;;5052884;28;20471;-69
2023/11/11 09:52:32;;;;;;;38.72;14.15;;;;;;;;;;5053999;28;20040;-69
2023/11/11 09:54:59;;;;;;;47.75;15.30;;;;;;;;;;5053052;28;20025;-69
2023/11/11 09:57:25;;;;;;;37.35;13.50;;;;;;;;;;5053912;28;20033;-69
2023/11/11 09:59:51;;;;;;;45.88;14.57;;;;;;;;;;5052184;28;20051;-69
2023/11/11 10:02:17;;;;;;;43.17;13.98;;;;;;;;;;5053741;28;20025;-70
2023/11/11 10:04:42;;;;;;;43.20;15.15;;;;;;;;;;5052593;28;20028;-69
2023/11/11 10:07:10;;;;;;;33.60;12.05;;;;;;;;;;5053881;28;20071;-69
2023/11/11 10:09:36;;;;;;;42.97;13.20;;;;;;;;;;5053715;28;20500;-69
2023/11/11 10:12:02;;;;;;;40.50;13.45;;;;;;;;;;5053669;28;20036;-70
2023/11/11 10:14:29;;;;;;;39.10;14.15;;;;;;;;;;5052283;28;20481;-69
2023/11/11 10:16:58;;;;;;;43.30;13.30;;;;;;;;;;5053409;28;20385;-69
2023/11/11 10:19:26;;;;;;;35.83;12.50;;;;;;;;;;5053884;28;20096;-70
2023/11/11 10:21:56;;;;;;;39.40;12.38;;;;;;;;;;5053276;28;20024;-69
2023/11/11 10:24:21;;;;;;;35.20;12.25;;;;;;;;;;5053744;28;20108;-69
2023/11/11 10:26:46;;;;;;;33.80;12.38;;;;;;;;;;5053792;28;20108;-69
2023/11/11 10:29:14;;;;;;;32.40;12.65;;;;;;;;;;5053101;28;20397;-70
2023/11/11 10:31:40;;;;;;;35.83;12.75;;;;;;;;;;5053032;28;20025;-70
2023/11/11 10:34:05;;;;;;;28.40;11.35;;;;;;;;;;5053097;28;20635;-70
2023/11/11 10:36:40;;;;;;;34.90;12.77;;;;;;;;;;5052075;28;20032;-69
2023/11/11 10:39:07;;;;;;;30.02;10.45;;;;;;;;;;5052425;28;20021;-69
2023/11/11 10:41:33;;;;;;;24.83;11.23;;;;;;;;;;5052509;28;20516;-70
2023/11/11 10:43:58;;;;;;;29.15;11.07;;;;;;;;;;5053213;28;20024;-69
2023/11/11 10:46:24;;;;;;;25.50;11.05;;;;;;;;;;5053372;28;20021;-69
2023/11/11 10:48:50;;;;;;;28.23;10.27;;;;;;;;;;5051954;28;20485;-69
2023/11/11 10:51:16;;;;;;;30.23;13.13;;;;;;;;;;5052735;28;20028;-69
2023/11/11 10:53:43;;;;;;;37.38;12.15;;;;;;;;;;5052983;28;20025;-69
2023/11/11 10:56:08;;;;;;;34.70;12.77;;;;;;;;;;5051748;28;20029;-69
2023/11/11 10:58:38;;;;;;;28.60;12.23;;;;;;;;;;5053443;28;20025;-69
2023/11/11 11:01:04;;;;;;;35.15;12.07;;;;;;;;;;5052820;28;20103;-69
2023/11/11 11:03:30;;;;;;;28.40;12.05;;;;;;;;;;5052024;28;20100;-69
2023/11/11 11:06:12;;;;;;;27.17;11.65;;;;;;;;;;5051638;28;20048;-69
2023/11/11 11:08:57;;;;;;;28.00;10.85;;;;;;;;;;5052744;28;20106;-69
2023/11/11 11:11:35;;;;;;;23.27;9.98;;;;;;;;;;5053195;28;20349;-69
2023/11/11 11:14:11;;;;;;;29.23;12.40;;;;;;;;;;5068023;28;20037;-69
2023/11/11 11:16:39;;;;;;;26.70;11.23;;;;;;;;;;5051660;28;20025;-70
2023/11/11 11:19:07;;;;;;;23.20;10.02;;;;;;;;;;5052727;28;20021;-69
2023/11/11 11:21:34;;;;;;;25.92;11.15;;;;;;;;;;5053327;28;20025;-70
2023/11/11 11:24:08;;;;;;;20.33;10.27;;;;;;;;;;5052416;28;20027;-69
2023/11/11 11:26:33;;;;;;;24.77;9.98;;;;;;;;;;5052978;28;20025;-70
2023/11/11 11:29:17;;;;;;;28.67;9.80;;;;;;;;;;5053146;28;20031;-69
2023/11/11 11:32:08;;;;;;;22.90;9.68;;;;;;;;;;5051713;28;20025;-69
2023/11/11 11:34:34;;;;;;;24.05;9.30;;;;;;;;;;5052232;28;20079;-71
2023/11/11 11:36:59;;;;;;;24.67;9.40;;;;;;;;;;5053124;28;20025;-69
2023/11/11 11:39:28;;;;;;;23.90;10.95;;;;;;;;;;5052864;28;20024;-70
2023/11/11 11:42:10;;;;;;;20.20;9.40;;;;;;;;;;5047283;28;20536;-69
2023/11/11 11:44:35;;;;;;;31.70;10.93;;;;;;;;;;5031304;28;20079;-69
2023/11/11 11:47:00;;;;;;;25.13;11.23;;;;;;;;;;5033560;28;20021;-70
2023/11/11 11:49:27;;;;;;;20.25;9.63;;;;;;;;;;5041423;28;20029;-70
2023/11/11 11:51:52;;;;;;;22.30;9.57;;;;;;;;;;5053806;28;20025;-69
2023/11/11 11:54:17;;;;;;;21.70;8.38;;;;;;;;;;5056565;28;20436;-70
2023/11/11 11:56:44;;;;;;;19.83;8.73;;;;;;;;;;5056054;28;20024;-69
2023/11/11 11:59:13;;;;;;;23.38;9.00;;;;;;;;;;5056374;28;20043;-69
2023/11/11 12:01:39;;;;;;;22.45;9.90;;;;;;;;;;5056567;28;20122;-68
2023/11/11 12:04:05;;;;;;;24.83;10.10;;;;;;;;;;5056218;28;20100;-69
2023/11/11 12:06:30;;;;;;;21.15;9.07;;;;;;;;;;5056809;28;20029;-69
2023/11/11 12:09:00;;;;;;;18.52;7.90;;;;;;;;;;5054469;28;20508;-68
2023/11/11 12:11:31;;;;;;;22.35;7.63;;;;;;;;;;5056344;28;20489;-69
2023/11/11 12:14:07;;;;;;;20.92;8.55;;;;;;;;;;5056149;28;20474;-68
2023/11/11 12:16:40;;;;;;;20.00;7.55;;;;;;;;;;5056274;28;20040;-68
2023/11/11 12:19:09;;;;;;;20.13;8.13;;;;;;;;;;5056299;28;20036;-68
2023/11/11 12:21:35;;;;;;;17.08;7.85;;;;;;;;;;5056880;28;20037;-68
2023/11/11 12:24:02;;;;;;;13.52;7.30;;;;;;;;;;5055142;28;20035;-69
2023/11/11 12:26:27;;;;;;;19.80;8.48;;;;;;;;;;5056024;28;20035;-69
2023/11/11 12:28:53;;;;;;;19.30;7.90;;;;;;;;;;5071037;28;20025;-70
2023/11/11 12:31:18;;;;;;;16.45;7.53;;;;;;;;;;5035903;28;20022;-69
2023/11/11 12:33:44;;;;;;;16.35;8.02;;;;;;;;;;5035623;28;20030;-69
2023/11/11 12:36:09;;;;;;;16.60;7.68;;;;;;;;;;5051060;28;20025;-69
2023/11/11 12:38:35;;;;;;;16.40;7.85;;;;;;;;;;5068511;28;20032;-69
2023/11/11 12:41:09;;;;;;;23.02;8.57;;;;;;;;;;5055489;28;20029;-69
2023/11/11 12:43:35;;;;;;;21.17;9.43;;;;;;;;;;5055664;28;20029;-69
2023/11/11 12:46:01;;;;;;;19.58;9.75;;;;;;;;;;5054102;28;20055;-69
2023/11/11 12:48:30;;;;;;;19.30;9.95;;;;;;;;;;5054521;28;20043;-69
2023/11/11 12:50:55;;;;;;;22.08;10.57;;;;;;;;;;5054846;28;20025;-69
2023/11/11 12:53:21;;;;;;;26.40;11.55;;;;;;;;;;5055433;28;20029;-69
2023/11/11 12:55:47;;;;;;;26.95;13.02;;;;;;;;;;5054013;28;20024;-69
2023/11/11 12:58:22;;;;;;;19.67;9.70;;;;;;;;;;5055226;28;20024;-69
2023/11/11 13:00:55;;;;;;;18.30;9.43;;;;;;;;;;5055251;28;20013;-69
2023/11/11 13:03:25;;;;;;;25.33;11.02;;;;;;;;;;5070559;28;20390;-69
2023/11/11 13:05:52;;;;;;;23.65;11.40;;;;;;;;;;5055032;28;20028;-69
2023/11/11 13:08:21;;;;;;;21.13;10.60;;;;;;;;;;5055282;28;20032;-69
2023/11/11 13:10:52;;;;;;;22.40;10.00;;;;;;;;;;5055055;28;20025;-69
2023/11/11 13:13:18;;;;;;;21.45;9.65;;;;;;;;;;5052973;28;20021;-69
2023/11/11 13:15:43;;;;;;;17.90;9.20;;;;;;;;;;5041571;28;20486;-69
2023/11/11 13:18:09;;;;;;;15.77;8.18;;;;;;;;;;5034372;28;20547;-69
2023/11/11 13:20:34;;;;;;;16.02;8.65;;;;;;;;;;5034390;28;20025;-69
2023/11/11 13:23:00;;;;;;;22.08;10.38;;;;;;;;;;5035011;28;20026;-69
2023/11/11 13:25:25;;;;;;;21.52;9.85;;;;;;;;;;5049930;28;20490;-69
2023/11/11 13:27:51;;;;;;;22.17;9.73;;;;;;;;;;5054565;28;20116;-69
2023/11/11 13:30:17;;;;;;;17.98;8.85;;;;;;;;;;5054153;28;20406;-69
2023/11/11 13:32:43;;;;;;;18.65;10.52;;;;;;;;;;5054819;28;20025;-69
2023/11/11 13:35:09;;;;;;;19.75;8.60;;;;;;;;;;5054043;28;20017;-69
2023/11/11 13:37:36;;;;;;;20.95;9.38;;;;;;;;;;5054772;28;20029;-69
2023/11/11 13:40:02;;;;;;;16.88;8.90;;;;;;;;;;5054358;28;20031;-69
2023/11/11 13:42:27;;;;;;;15.63;7.47;;;;;;;;;;5054535;28;20361;-69
2023/11/11 13:44:53;;;;;;;19.65;8.45;;;;;;;;;;5053500;28;20020;-69
2023/11/11 13:47:20;;;;;;;14.75;7.72;;;;;;;;;;5053844;28;20078;-69
2023/11/11 13:49:45;;;;;;;19.50;8.20;;;;;;;;;;5054070;28;20543;-69
2023/11/11 13:52:11;;;;;;;15.63;7.25;;;;;;;;;;5054169;28;20028;-69
2023/11/11 13:54:37;;;;;;;18.55;9.13;;;;;;;;;;5053776;28;20028;-69
2023/11/11 13:57:02;;;;;;;19.58;8.13;;;;;;;;;;5050275;28;20083;-69
2023/11/11 13:59:28;;;;;;;18.67;8.63;;;;;;;;;;5054064;28;20025;-69
2023/11/11 14:01:53;;;;;;;18.67;8.02;;;;;;;;;;5054131;28;20020;-69
2023/11/11 14:04:19;;;;;;;16.35;8.35;;;;;;;;;;5053764;28;20025;-69
2023/11/11 14:06:44;;;;;;;18.00;8.13;;;;;;;;;;5054193;28;20025;-69
2023/11/11 14:09:11;;;;;;;15.38;7.70;;;;;;;;;;5054185;28;20108;-68
2023/11/11 14:11:37;;;;;;;19.35;8.77;;;;;;;;;;5054016;28;20032;-69
2023/11/11 14:14:02;;;;;;;19.25;8.57;;;;;;;;;;5053224;28;20425;-69
2023/11/11 14:16:27;;;;;;;17.50;6.90;;;;;;;;;;5053181;28;20124;-69